sensor_id;sensor_type;location;lat;lon;timestamp;P1;durP1;ratioP1;P2;durP2;ratioP2
37241;SDS011;23135;51.078;12.108;2024-03-22T00:00:30;44.92;;;21.08;;
37241;SDS011;23135;51.078;12.108;2024-03-22T00:02:56;39.97;;;19.48;;
37241;SDS011;23135;51.078;12.108;2024-03-22T00:05:21;41.75;;;17.58;;
37241;SDS011;23135;51.078;12.108;2024-03-22T00:07:47;39.88;;;19.25;;
37241;SDS011;23135;51.078;12.108;2024-03-22T00:10:13;44.05;;;19.63;;
37241;SDS011;23135;51.078;12.108;2024-03-22T00:12:39;43.25;;;20.10;;
37241;SDS011;23135;51.078;12.108;2024-03-22T00:15:05;43.40;;;19.55;;
37241;SDS011;23135;51.078;12.108;2024-03-22T00:17:31;38.58;;;19.75;;
37241;SDS011;23135;51.078;12.108;2024-03-22T00:19:58;38.92;;;18.70;;
37241;SDS011;23135;51.078;12.108;2024-03-22T00:22:24;42.60;;;20.00;;
37241;SDS011;23135;51.078;12.108;2024-03-22T00:24:49;44.00;;;19.83;;
37241;SDS011;23135;51.078;12.108;2024-03-22T00:27:15;42.83;;;18.00;;
37241;SDS011;23135;51.078;12.108;2024-03-22T00:29:40;38.65;;;17.60;;
37241;SDS011;23135;51.078;12.108;2024-03-22T00:32:06;34.03;;;16.02;;
37241;SDS011;23135;51.078;12.108;2024-03-22T00:34:32;38.10;;;16.85;;
37241;SDS011;23135;51.078;12.108;2024-03-22T00:36:59;26.63;;;13.90;;
37241;SDS011;23135;51.078;12.108;2024-03-22T00:39:24;31.80;;;14.25;;
37241;SDS011;23135;51.078;12.108;2024-03-22T00:41:50;30.10;;;14.23;;
37241;SDS011;23135;51.078;12.108;2024-03-22T00:44:15;32.70;;;13.38;;
37241;SDS011;23135;51.078;12.108;2024-03-22T00:46:41;23.00;;;12.95;;
37241;SDS011;23135;51.078;12.108;2024-03-22T00:49:06;29.08;;;11.88;;
37241;SDS011;23135;51.078;12.108;2024-03-22T00:51:32;29.15;;;12.68;;
37241;SDS011;23135;51.078;12.108;2024-03-22T00:53:57;25.25;;;12.00;;
37241;SDS011;23135;51.078;12.108;2024-03-22T00:56:23;22.35;;;11.52;;
37241;SDS011;23135;51.078;12.108;2024-03-22T00:58:48;20.25;;;10.70;;
37241;SDS011;23135;51.078;12.108;2024-03-22T01:01:14;20.30;;;9.98;;
37241;SDS011;23135;51.078;12.108;2024-03-22T01:03:39;21.65;;;11.50;;
37241;SDS011;23135;51.078;12.108;2024-03-22T01:06:05;22.35;;;8.57;;
37241;SDS011;23135;51.078;12.108;2024-03-22T01:08:32;24.08;;;9.82;;
37241;SDS011;23135;51.078;12.108;2024-03-22T01:10:57;23.27;;;9.57;;
37241;SDS011;23135;51.078;12.108;2024-03-22T01:13:23;26.42;;;10.65;;
37241;SDS011;23135;51.078;12.108;2024-03-22T01:15:48;18.58;;;9.02;;
37241;SDS011;23135;51.078;12.108;2024-03-22T01:18:14;19.75;;;7.50;;
37241;SDS011;23135;51.078;12.108;2024-03-22T01:20:40;19.00;;;9.05;;
37241;SDS011;23135;51.078;12.108;2024-03-22T01:23:07;32.80;;;6.30;;
37241;SDS011;23135;51.078;12.108;2024-03-22T01:25:32;22.13;;;6.53;;
37241;SDS011;23135;51.078;12.108;2024-03-22T01:27:58;12.10;;;5.95;;
37241;SDS011;23135;51.078;12.108;2024-03-22T01:30:23;18.70;;;5.40;;
37241;SDS011;23135;51.078;12.108;2024-03-22T01:32:53;11.57;;;5.60;;
37241;SDS011;23135;51.078;12.108;2024-03-22T01:35:19;14.27;;;5.68;;
37241;SDS011;23135;51.078;12.108;2024-03-22T01:37:45;11.23;;;5.57;;
37241;SDS011;23135;51.078;12.108;2024-03-22T01:40:10;13.90;;;5.75;;
37241;SDS011;23135;51.078;12.108;2024-03-22T01:42:36;17.38;;;5.90;;
37241;SDS011;23135;51.078;12.108;2024-03-22T01:45:02;14.77;;;6.53;;
37241;SDS011;23135;51.078;12.108;2024-03-22T01:47:28;12.40;;;5.82;;
37241;SDS011;23135;51.078;12.108;2024-03-22T01:49:54;11.98;;;4.18;;
37241;SDS011;23135;51.078;12.108;2024-03-22T01:52:20;10.43;;;4.93;;
37241;SDS011;23135;51.078;12.108;2024-03-22T01:54:46;8.30;;;3.70;;
37241;SDS011;23135;51.078;12.108;2024-03-22T01:57:12;7.22;;;4.05;;
37241;SDS011;23135;51.078;12.108;2024-03-22T01:59:37;11.38;;;2.85;;
37241;SDS011;23135;51.078;12.108;2024-03-22T02:02:04;7.75;;;3.10;;
37241;SDS011;23135;51.078;12.108;2024-03-22T02:04:29;8.05;;;4.00;;
37241;SDS011;23135;51.078;12.108;2024-03-22T02:06:55;10.90;;;3.25;;
37241;SDS011;23135;51.078;12.108;2024-03-22T02:09:21;5.85;;;3.25;;
37241;SDS011;23135;51.078;12.108;2024-03-22T02:11:46;8.98;;;3.40;;
37241;SDS011;23135;51.078;12.108;2024-03-22T02:14:12;9.98;;;3.47;;
37241;SDS011;23135;51.078;12.108;2024-03-22T02:16:39;6.18;;;3.25;;
37241;SDS011;23135;51.078;12.108;2024-03-22T02:19:05;9.13;;;3.72;;
37241;SDS011;23135;51.078;12.108;2024-03-22T02:21:31;7.43;;;3.70;;
37241;SDS011;23135;51.078;12.108;2024-03-22T02:23:57;6.93;;;3.47;;
37241;SDS011;23135;51.078;12.108;2024-03-22T02:26:22;8.50;;;3.25;;
37241;SDS011;23135;51.078;12.108;2024-03-22T02:28:48;8.70;;;3.58;;
37241;SDS011;23135;51.078;12.108;2024-03-22T02:31:13;13.43;;;3.47;;
37241;SDS011;23135;51.078;12.108;2024-03-22T02:33:39;8.30;;;3.88;;
37241;SDS011;23135;51.078;12.108;2024-03-22T02:36:04;8.80;;;3.97;;
37241;SDS011;23135;51.078;12.108;2024-03-22T02:38:30;8.80;;;3.33;;
37241;SDS011;23135;51.078;12.108;2024-03-22T02:40:57;9.07;;;3.53;;
37241;SDS011;23135;51.078;12.108;2024-03-22T02:43:23;7.57;;;3.20;;
37241;SDS011;23135;51.078;12.108;2024-03-22T02:45:49;9.18;;;4.65;;
37241;SDS011;23135;51.078;12.108;2024-03-22T02:48:14;8.05;;;4.43;;
37241;SDS011;23135;51.078;12.108;2024-03-22T02:50:41;5.80;;;3.72;;
37241;SDS011;23135;51.078;12.108;2024-03-22T02:53:07;13.93;;;4.05;;
37241;SDS011;23135;51.078;12.108;2024-03-22T02:55:36;9.30;;;5.53;;
37241;SDS011;23135;51.078;12.108;2024-03-22T02:58:03;11.77;;;4.38;;
37241;SDS011;23135;51.078;12.108;2024-03-22T03:00:28;7.85;;;4.78;;
37241;SDS011;23135;51.078;12.108;2024-03-22T03:02:54;8.48;;;3.25;;
37241;SDS011;23135;51.078;12.108;2024-03-22T03:05:19;8.35;;;4.18;;
37241;SDS011;23135;51.078;12.108;2024-03-22T03:07:45;8.38;;;3.83;;
37241;SDS011;23135;51.078;12.108;2024-03-22T03:10:12;7.53;;;3.75;;
37241;SDS011;23135;51.078;12.108;2024-03-22T03:12:37;11.75;;;4.47;;
37241;SDS011;23135;51.078;12.108;2024-03-22T03:15:03;8.85;;;4.03;;
37241;SDS011;23135;51.078;12.108;2024-03-22T03:17:29;10.00;;;3.92;;
37241;SDS011;23135;51.078;12.108;2024-03-22T03:19:54;7.68;;;3.75;;
37241;SDS011;23135;51.078;12.108;2024-03-22T03:22:20;10.20;;;3.53;;
37241;SDS011;23135;51.078;12.108;2024-03-22T03:24:45;11.48;;;4.88;;
37241;SDS011;23135;51.078;12.108;2024-03-22T03:27:11;12.43;;;3.67;;
37241;SDS011;23135;51.078;12.108;2024-03-22T03:29:37;10.82;;;4.15;;
37241;SDS011;23135;51.078;12.108;2024-03-22T03:32:02;7.32;;;3.60;;
37241;SDS011;23135;51.078;12.108;2024-03-22T03:34:28;11.80;;;3.95;;
37241;SDS011;23135;51.078;12.108;2024-03-22T03:36:53;8.38;;;4.38;;
37241;SDS011;23135;51.078;12.108;2024-03-22T03:39:19;8.48;;;3.60;;
37241;SDS011;23135;51.078;12.108;2024-03-22T03:41:45;7.43;;;3.72;;
37241;SDS011;23135;51.078;12.108;2024-03-22T03:44:10;4.32;;;2.85;;
37241;SDS011;23135;51.078;12.108;2024-03-22T03:46:36;6.13;;;3.10;;
37241;SDS011;23135;51.078;12.108;2024-03-22T03:49:01;6.50;;;3.30;;
37241;SDS011;23135;51.078;12.108;2024-03-22T03:51:27;5.15;;;3.08;;
37241;SDS011;23135;51.078;12.108;2024-03-22T03:53:52;5.13;;;2.78;;
37241;SDS011;23135;51.078;12.108;2024-03-22T03:56:18;11.65;;;4.05;;
37241;SDS011;23135;51.078;12.108;2024-03-22T03:58:45;5.47;;;2.80;;
37241;SDS011;23135;51.078;12.108;2024-03-22T04:01:11;10.70;;;3.50;;
37241;SDS011;23135;51.078;12.108;2024-03-22T04:03:36;7.53;;;4.00;;
37241;SDS011;23135;51.078;12.108;2024-03-22T04:06:02;3.42;;;1.88;;
37241;SDS011;23135;51.078;12.108;2024-03-22T04:08:28;10.55;;;2.58;;
37241;SDS011;23135;51.078;12.108;2024-03-22T04:10:55;8.15;;;4.20;;
37241;SDS011;23135;51.078;12.108;2024-03-22T04:13:25;5.82;;;2.40;;
37241;SDS011;23135;51.078;12.108;2024-03-22T04:15:51;4.90;;;2.35;;
37241;SDS011;23135;51.078;12.108;2024-03-22T04:18:17;6.97;;;2.42;;
37241;SDS011;23135;51.078;12.108;2024-03-22T04:20:42;4.93;;;2.70;;
37241;SDS011;23135;51.078;12.108;2024-03-22T04:23:11;8.57;;;3.03;;
37241;SDS011;23135;51.078;12.108;2024-03-22T04:25:36;6.70;;;3.05;;
37241;SDS011;23135;51.078;12.108;2024-03-22T04:28:02;4.03;;;2.13;;
37241;SDS011;23135;51.078;12.108;2024-03-22T04:30:28;4.20;;;2.65;;
37241;SDS011;23135;51.078;12.108;2024-03-22T04:32:53;6.75;;;1.80;;
37241;SDS011;23135;51.078;12.108;2024-03-22T04:35:19;5.47;;;2.22;;
37241;SDS011;23135;51.078;12.108;2024-03-22T04:37:45;4.35;;;2.00;;
37241;SDS011;23135;51.078;12.108;2024-03-22T04:40:10;4.00;;;1.90;;
37241;SDS011;23135;51.078;12.108;2024-03-22T04:42:36;7.15;;;2.08;;
37241;SDS011;23135;51.078;12.108;2024-03-22T04:45:02;4.68;;;1.65;;
37241;SDS011;23135;51.078;12.108;2024-03-22T04:47:28;3.65;;;1.63;;
37241;SDS011;23135;51.078;12.108;2024-03-22T04:49:53;5.38;;;2.75;;
37241;SDS011;23135;51.078;12.108;2024-03-22T04:52:19;6.15;;;2.28;;
37241;SDS011;23135;51.078;12.108;2024-03-22T04:54:44;5.88;;;2.13;;
37241;SDS011;23135;51.078;12.108;2024-03-22T04:57:10;3.97;;;1.90;;
37241;SDS011;23135;51.078;12.108;2024-03-22T04:59:35;4.38;;;1.85;;
37241;SDS011;23135;51.078;12.108;2024-03-22T05:02:01;10.65;;;2.63;;
37241;SDS011;23135;51.078;12.108;2024-03-22T05:04:26;4.90;;;1.85;;
37241;SDS011;23135;51.078;12.108;2024-03-22T05:06:52;5.75;;;2.35;;
37241;SDS011;23135;51.078;12.108;2024-03-22T05:09:18;4.88;;;2.47;;
37241;SDS011;23135;51.078;12.108;2024-03-22T05:11:43;5.95;;;2.72;;
37241;SDS011;23135;51.078;12.108;2024-03-22T05:14:11;9.07;;;2.83;;
37241;SDS011;23135;51.078;12.108;2024-03-22T05:16:37;8.45;;;3.17;;
37241;SDS011;23135;51.078;12.108;2024-03-22T05:19:02;6.40;;;3.25;;
37241;SDS011;23135;51.078;12.108;2024-03-22T05:21:28;6.90;;;2.47;;
37241;SDS011;23135;51.078;12.108;2024-03-22T05:23:53;10.00;;;2.47;;
37241;SDS011;23135;51.078;12.108;2024-03-22T05:26:19;6.35;;;3.90;;
37241;SDS011;23135;51.078;12.108;2024-03-22T05:28:45;11.18;;;2.33;;
37241;SDS011;23135;51.078;12.108;2024-03-22T05:31:11;7.18;;;3.03;;
37241;SDS011;23135;51.078;12.108;2024-03-22T05:33:36;6.88;;;3.20;;
37241;SDS011;23135;51.078;12.108;2024-03-22T05:36:02;8.35;;;3.08;;
37241;SDS011;23135;51.078;12.108;2024-03-22T05:38:28;6.13;;;2.17;;
37241;SDS011;23135;51.078;12.108;2024-03-22T05:40:53;7.22;;;2.55;;
37241;SDS011;23135;51.078;12.108;2024-03-22T05:43:19;6.78;;;3.03;;
37241;SDS011;23135;51.078;12.108;2024-03-22T05:45:44;8.18;;;3.03;;
37241;SDS011;23135;51.078;12.108;2024-03-22T05:48:10;7.32;;;2.63;;
37241;SDS011;23135;51.078;12.108;2024-03-22T05:50:35;9.43;;;3.33;;
37241;SDS011;23135;51.078;12.108;2024-03-22T05:53:01;7.78;;;4.07;;
37241;SDS011;23135;51.078;12.108;2024-03-22T05:55:27;6.03;;;3.13;;
37241;SDS011;23135;51.078;12.108;2024-03-22T05:57:56;12.13;;;4.03;;
37241;SDS011;23135;51.078;12.108;2024-03-22T06:00:21;7.68;;;3.45;;
37241;SDS011;23135;51.078;12.108;2024-03-22T06:02:47;7.47;;;3.00;;
37241;SDS011;23135;51.078;12.108;2024-03-22T06:05:12;10.20;;;3.80;;
37241;SDS011;23135;51.078;12.108;2024-03-22T06:07:38;9.07;;;3.38;;
37241;SDS011;23135;51.078;12.108;2024-03-22T06:10:09;7.00;;;3.72;;
37241;SDS011;23135;51.078;12.108;2024-03-22T06:12:35;13.00;;;4.70;;
37241;SDS011;23135;51.078;12.108;2024-03-22T06:15:01;8.63;;;3.78;;
37241;SDS011;23135;51.078;12.108;2024-03-22T06:17:26;10.50;;;4.22;;
37241;SDS011;23135;51.078;12.108;2024-03-22T06:19:52;9.93;;;4.75;;
37241;SDS011;23135;51.078;12.108;2024-03-22T06:22:17;11.00;;;4.65;;
37241;SDS011;23135;51.078;12.108;2024-03-22T06:24:44;6.28;;;4.00;;
37241;SDS011;23135;51.078;12.108;2024-03-22T06:27:10;11.15;;;4.72;;
37241;SDS011;23135;51.078;12.108;2024-03-22T06:29:35;7.70;;;3.75;;
37241;SDS011;23135;51.078;12.108;2024-03-22T06:32:01;10.07;;;4.47;;
37241;SDS011;23135;51.078;12.108;2024-03-22T06:34:26;8.60;;;4.45;;
37241;SDS011;23135;51.078;12.108;2024-03-22T06:36:52;8.10;;;3.97;;
37241;SDS011;23135;51.078;12.108;2024-03-22T06:39:18;8.50;;;4.13;;
37241;SDS011;23135;51.078;12.108;2024-03-22T06:41:44;9.63;;;4.28;;
37241;SDS011;23135;51.078;12.108;2024-03-22T06:44:11;11.13;;;4.60;;
37241;SDS011;23135;51.078;12.108;2024-03-22T06:46:39;11.10;;;4.90;;
37241;SDS011;23135;51.078;12.108;2024-03-22T06:49:04;9.50;;;4.30;;
37241;SDS011;23135;51.078;12.108;2024-03-22T06:51:30;10.57;;;4.88;;
37241;SDS011;23135;51.078;12.108;2024-03-22T06:53:56;8.23;;;4.63;;
37241;SDS011;23135;51.078;12.108;2024-03-22T06:56:21;16.92;;;5.57;;
37241;SDS011;23135;51.078;12.108;2024-03-22T06:58:47;9.52;;;4.93;;
37241;SDS011;23135;51.078;12.108;2024-03-22T07:01:12;10.82;;;5.07;;
37241;SDS011;23135;51.078;12.108;2024-03-22T07:03:38;10.15;;;5.30;;
37241;SDS011;23135;51.078;12.108;2024-03-22T07:06:03;13.38;;;5.25;;
37241;SDS011;23135;51.078;12.108;2024-03-22T07:08:32;7.97;;;4.32;;
37241;SDS011;23135;51.078;12.108;2024-03-22T07:10:58;10.63;;;6.30;;
37241;SDS011;23135;51.078;12.108;2024-03-22T07:13:24;11.40;;;4.38;;
37241;SDS011;23135;51.078;12.108;2024-03-22T07:15:50;15.40;;;4.53;;
37241;SDS011;23135;51.078;12.108;2024-03-22T07:18:15;10.32;;;5.53;;
37241;SDS011;23135;51.078;12.108;2024-03-22T07:20:41;11.90;;;5.30;;
37241;SDS011;23135;51.078;12.108;2024-03-22T07:23:07;11.40;;;5.97;;
37241;SDS011;23135;51.078;12.108;2024-03-22T07:25:33;11.52;;;5.80;;
37241;SDS011;23135;51.078;12.108;2024-03-22T07:27:59;9.70;;;5.78;;
37241;SDS011;23135;51.078;12.108;2024-03-22T07:30:24;11.10;;;5.50;;
37241;SDS011;23135;51.078;12.108;2024-03-22T07:32:50;10.15;;;5.05;;
37241;SDS011;23135;51.078;12.108;2024-03-22T07:35:16;11.75;;;5.20;;
37241;SDS011;23135;51.078;12.108;2024-03-22T07:37:41;9.95;;;5.43;;
37241;SDS011;23135;51.078;12.108;2024-03-22T07:40:07;16.58;;;6.18;;
37241;SDS011;23135;51.078;12.108;2024-03-22T07:42:33;9.00;;;4.57;;
37241;SDS011;23135;51.078;12.108;2024-03-22T07:44:59;10.75;;;4.18;;
37241;SDS011;23135;51.078;12.108;2024-03-22T07:47:24;9.07;;;3.63;;
37241;SDS011;23135;51.078;12.108;2024-03-22T07:49:50;13.10;;;5.85;;
37241;SDS011;23135;51.078;12.108;2024-03-22T07:52:16;14.73;;;5.40;;
37241;SDS011;23135;51.078;12.108;2024-03-22T07:54:41;8.63;;;4.80;;
37241;SDS011;23135;51.078;12.108;2024-03-22T07:57:07;14.20;;;6.15;;
37241;SDS011;23135;51.078;12.108;2024-03-22T07:59:32;13.55;;;6.25;;
37241;SDS011;23135;51.078;12.108;2024-03-22T08:01:58;12.27;;;5.65;;
37241;SDS011;23135;51.078;12.108;2024-03-22T08:04:24;11.38;;;5.05;;
37241;SDS011;23135;51.078;12.108;2024-03-22T08:06:52;13.43;;;6.07;;
37241;SDS011;23135;51.078;12.108;2024-03-22T08:09:18;10.18;;;5.82;;
37241;SDS011;23135;51.078;12.108;2024-03-22T08:11:44;15.13;;;5.70;;
37241;SDS011;23135;51.078;12.108;2024-03-22T08:14:09;10.88;;;5.88;;
37241;SDS011;23135;51.078;12.108;2024-03-22T08:16:35;16.30;;;6.13;;
37241;SDS011;23135;51.078;12.108;2024-03-22T08:19:01;15.20;;;6.18;;
37241;SDS011;23135;51.078;12.108;2024-03-22T08:21:26;13.85;;;6.25;;
37241;SDS011;23135;51.078;12.108;2024-03-22T08:23:52;13.68;;;6.35;;
37241;SDS011;23135;51.078;12.108;2024-03-22T08:26:18;16.77;;;7.18;;
37241;SDS011;23135;51.078;12.108;2024-03-22T08:28:44;14.10;;;5.63;;
37241;SDS011;23135;51.078;12.108;2024-03-22T08:31:13;18.05;;;7.25;;
37241;SDS011;23135;51.078;12.108;2024-03-22T08:33:39;11.82;;;6.07;;
37241;SDS011;23135;51.078;12.108;2024-03-22T08:36:04;14.85;;;7.05;;
37241;SDS011;23135;51.078;12.108;2024-03-22T08:38:30;13.73;;;6.18;;
37241;SDS011;23135;51.078;12.108;2024-03-22T08:40:56;13.13;;;7.20;;
37241;SDS011;23135;51.078;12.108;2024-03-22T08:43:21;12.60;;;6.50;;
37241;SDS011;23135;51.078;12.108;2024-03-22T08:45:50;12.10;;;6.10;;
37241;SDS011;23135;51.078;12.108;2024-03-22T08:48:16;14.55;;;6.43;;
37241;SDS011;23135;51.078;12.108;2024-03-22T08:50:42;19.02;;;7.07;;
37241;SDS011;23135;51.078;12.108;2024-03-22T08:53:08;11.50;;;6.43;;
37241;SDS011;23135;51.078;12.108;2024-03-22T08:55:34;11.45;;;6.70;;
37241;SDS011;23135;51.078;12.108;2024-03-22T08:57:59;14.85;;;6.65;;
37241;SDS011;23135;51.078;12.108;2024-03-22T09:00:25;12.68;;;6.43;;
37241;SDS011;23135;51.078;12.108;2024-03-22T09:02:51;11.48;;;6.07;;
37241;SDS011;23135;51.078;12.108;2024-03-22T09:05:17;14.15;;;6.38;;
37241;SDS011;23135;51.078;12.108;2024-03-22T09:07:43;12.80;;;6.32;;
37241;SDS011;23135;51.078;12.108;2024-03-22T09:10:09;16.50;;;8.75;;
37241;SDS011;23135;51.078;12.108;2024-03-22T09:12:35;15.02;;;6.80;;
37241;SDS011;23135;51.078;12.108;2024-03-22T09:15:01;12.43;;;6.72;;
37241;SDS011;23135;51.078;12.108;2024-03-22T09:17:27;11.35;;;6.40;;
37241;SDS011;23135;51.078;12.108;2024-03-22T09:19:52;17.67;;;7.72;;
37241;SDS011;23135;51.078;12.108;2024-03-22T09:22:18;15.25;;;7.38;;
37241;SDS011;23135;51.078;12.108;2024-03-22T09:24:44;13.02;;;6.43;;
37241;SDS011;23135;51.078;12.108;2024-03-22T09:27:09;13.07;;;6.97;;
37241;SDS011;23135;51.078;12.108;2024-03-22T09:29:35;14.07;;;7.50;;
37241;SDS011;23135;51.078;12.108;2024-03-22T09:32:02;11.40;;;5.97;;
37241;SDS011;23135;51.078;12.108;2024-03-22T09:34:28;15.27;;;7.65;;
37241;SDS011;23135;51.078;12.108;2024-03-22T09:36:54;12.30;;;6.57;;
37241;SDS011;23135;51.078;12.108;2024-03-22T09:39:21;12.70;;;6.68;;
37241;SDS011;23135;51.078;12.108;2024-03-22T09:41:47;10.95;;;6.25;;
37241;SDS011;23135;51.078;12.108;2024-03-22T09:44:14;14.13;;;7.18;;
37241;SDS011;23135;51.078;12.108;2024-03-22T09:46:42;12.57;;;5.95;;
37241;SDS011;23135;51.078;12.108;2024-03-22T09:49:09;11.93;;;6.15;;
37241;SDS011;23135;51.078;12.108;2024-03-22T09:51:41;16.77;;;6.68;;
37241;SDS011;23135;51.078;12.108;2024-03-22T09:54:11;9.77;;;5.75;;
37241;SDS011;23135;51.078;12.108;2024-03-22T09:56:38;13.40;;;6.90;;
37241;SDS011;23135;51.078;12.108;2024-03-22T09:59:04;12.18;;;6.05;;
37241;SDS011;23135;51.078;12.108;2024-03-22T10:01:31;12.85;;;5.03;;
37241;SDS011;23135;51.078;12.108;2024-03-22T10:03:59;9.32;;;5.70;;
37241;SDS011;23135;51.078;12.108;2024-03-22T10:06:25;11.05;;;5.18;;
37241;SDS011;23135;51.078;12.108;2024-03-22T10:08:50;11.05;;;7.05;;
37241;SDS011;23135;51.078;12.108;2024-03-22T10:11:16;10.10;;;5.28;;
37241;SDS011;23135;51.078;12.108;2024-03-22T10:13:41;9.20;;;4.85;;
37241;SDS011;23135;51.078;12.108;2024-03-22T10:16:07;12.73;;;6.20;;
37241;SDS011;23135;51.078;12.108;2024-03-22T10:18:33;13.38;;;6.90;;
37241;SDS011;23135;51.078;12.108;2024-03-22T10:21:02;7.70;;;4.75;;
37241;SDS011;23135;51.078;12.108;2024-03-22T10:23:29;8.93;;;5.40;;
37241;SDS011;23135;51.078;12.108;2024-03-22T10:25:58;10.13;;;3.90;;
37241;SDS011;23135;51.078;12.108;2024-03-22T10:28:27;11.63;;;5.00;;
37241;SDS011;23135;51.078;12.108;2024-03-22T10:30:53;14.60;;;5.80;;
37241;SDS011;23135;51.078;12.108;2024-03-22T10:33:19;10.75;;;5.90;;
37241;SDS011;23135;51.078;12.108;2024-03-22T10:35:47;11.98;;;5.75;;
37241;SDS011;23135;51.078;12.108;2024-03-22T10:38:18;13.60;;;6.75;;
37241;SDS011;23135;51.078;12.108;2024-03-22T10:40:45;14.13;;;6.10;;
37241;SDS011;23135;51.078;12.108;2024-03-22T10:43:15;14.23;;;6.55;;
37241;SDS011;23135;51.078;12.108;2024-03-22T10:45:41;12.60;;;6.10;;
37241;SDS011;23135;51.078;12.108;2024-03-22T10:48:10;15.75;;;6.38;;
37241;SDS011;23135;51.078;12.108;2024-03-22T10:50:40;16.45;;;6.80;;
37241;SDS011;23135;51.078;12.108;2024-03-22T10:53:13;13.55;;;7.82;;
37241;SDS011;23135;51.078;12.108;2024-03-22T10:55:45;15.00;;;7.25;;
37241;SDS011;23135;51.078;12.108;2024-03-22T10:58:16;13.13;;;7.20;;
37241;SDS011;23135;51.078;12.108;2024-03-22T11:00:42;14.77;;;7.82;;
37241;SDS011;23135;51.078;12.108;2024-03-22T11:03:09;15.45;;;8.32;;
37241;SDS011;23135;51.078;12.108;2024-03-22T11:05:34;14.73;;;8.75;;
37241;SDS011;23135;51.078;12.108;2024-03-22T11:08:13;14.23;;;7.53;;
37241;SDS011;23135;51.078;12.108;2024-03-22T11:10:47;16.65;;;8.20;;
37241;SDS011;23135;51.078;12.108;2024-03-22T11:13:15;16.42;;;9.23;;
37241;SDS011;23135;51.078;12.108;2024-03-22T11:15:42;15.10;;;8.35;;
37241;SDS011;23135;51.078;12.108;2024-03-22T11:18:07;15.02;;;8.60;;
37241;SDS011;23135;51.078;12.108;2024-03-22T11:20:35;14.48;;;8.02;;
37241;SDS011;23135;51.078;12.108;2024-03-22T11:23:03;15.70;;;9.20;;
37241;SDS011;23135;51.078;12.108;2024-03-22T11:25:31;18.05;;;9.18;;
37241;SDS011;23135;51.078;12.108;2024-03-22T11:27:57;13.05;;;8.15;;
37241;SDS011;23135;51.078;12.108;2024-03-22T11:30:24;18.88;;;9.13;;
37241;SDS011;23135;51.078;12.108;2024-03-22T11:32:50;16.02;;;9.38;;
37241;SDS011;23135;51.078;12.108;2024-03-22T11:35:16;18.48;;;10.68;;
37241;SDS011;23135;51.078;12.108;2024-03-22T11:37:41;18.77;;;9.55;;
37241;SDS011;23135;51.078;12.108;2024-03-22T11:40:11;18.58;;;9.75;;
37241;SDS011;23135;51.078;12.108;2024-03-22T11:42:41;15.45;;;9.10;;
37241;SDS011;23135;51.078;12.108;2024-03-22T11:45:08;19.55;;;11.10;;
37241;SDS011;23135;51.078;12.108;2024-03-22T11:47:36;16.88;;;9.65;;
37241;SDS011;23135;51.078;12.108;2024-03-22T11:50:02;24.30;;;11.52;;
37241;SDS011;23135;51.078;12.108;2024-03-22T11:52:28;17.40;;;9.75;;
37241;SDS011;23135;51.078;12.108;2024-03-22T11:54:54;18.00;;;10.13;;
37241;SDS011;23135;51.078;12.108;2024-03-22T11:57:20;16.52;;;9.63;;
37241;SDS011;23135;51.078;12.108;2024-03-22T11:59:46;21.02;;;11.00;;
37241;SDS011;23135;51.078;12.108;2024-03-22T12:02:12;17.60;;;11.88;;
37241;SDS011;23135;51.078;12.108;2024-03-22T12:04:41;17.48;;;11.07;;
37241;SDS011;23135;51.078;12.108;2024-03-22T12:07:11;24.30;;;12.88;;
37241;SDS011;23135;51.078;12.108;2024-03-22T12:09:38;23.67;;;12.18;;
37241;SDS011;23135;51.078;12.108;2024-03-22T12:12:05;19.38;;;10.57;;
37241;SDS011;23135;51.078;12.108;2024-03-22T12:14:32;20.58;;;9.80;;
37241;SDS011;23135;51.078;12.108;2024-03-22T12:16:58;17.30;;;10.00;;
37241;SDS011;23135;51.078;12.108;2024-03-22T12:19:23;18.17;;;9.25;;
37241;SDS011;23135;51.078;12.108;2024-03-22T12:21:49;21.90;;;10.57;;
37241;SDS011;23135;51.078;12.108;2024-03-22T12:24:15;19.55;;;10.35;;
37241;SDS011;23135;51.078;12.108;2024-03-22T12:26:40;20.38;;;11.18;;
37241;SDS011;23135;51.078;12.108;2024-03-22T12:29:06;17.73;;;10.00;;
37241;SDS011;23135;51.078;12.108;2024-03-22T12:31:32;16.20;;;9.15;;
37241;SDS011;23135;51.078;12.108;2024-03-22T12:33:58;16.40;;;10.02;;
37241;SDS011;23135;51.078;12.108;2024-03-22T12:36:24;17.65;;;8.95;;
37241;SDS011;23135;51.078;12.108;2024-03-22T12:38:50;14.60;;;8.20;;
37241;SDS011;23135;51.078;12.108;2024-03-22T12:41:16;20.15;;;10.00;;
37241;SDS011;23135;51.078;12.108;2024-03-22T12:43:41;16.85;;;9.63;;
37241;SDS011;23135;51.078;12.108;2024-03-22T12:46:08;18.20;;;9.23;;
37241;SDS011;23135;51.078;12.108;2024-03-22T12:48:33;15.65;;;8.73;;
37241;SDS011;23135;51.078;12.108;2024-03-22T12:50:59;15.85;;;9.05;;
37241;SDS011;23135;51.078;12.108;2024-03-22T12:53:25;15.00;;;8.38;;
37241;SDS011;23135;51.078;12.108;2024-03-22T12:55:51;19.10;;;10.50;;
37241;SDS011;23135;51.078;12.108;2024-03-22T12:58:16;14.77;;;8.55;;
37241;SDS011;23135;51.078;12.108;2024-03-22T13:00:42;22.63;;;9.30;;
37241;SDS011;23135;51.078;12.108;2024-03-22T13:03:07;14.98;;;8.77;;
37241;SDS011;23135;51.078;12.108;2024-03-22T13:05:33;19.40;;;9.23;;
37241;SDS011;23135;51.078;12.108;2024-03-22T13:07:59;15.10;;;9.20;;
37241;SDS011;23135;51.078;12.108;2024-03-22T13:10:24;19.08;;;9.23;;
37241;SDS011;23135;51.078;12.108;2024-03-22T13:12:50;15.05;;;9.18;;
37241;SDS011;23135;51.078;12.108;2024-03-22T13:15:15;15.15;;;9.32;;
37241;SDS011;23135;51.078;12.108;2024-03-22T13:17:41;17.30;;;8.52;;
37241;SDS011;23135;51.078;12.108;2024-03-22T13:20:06;16.35;;;8.60;;
37241;SDS011;23135;51.078;12.108;2024-03-22T13:22:38;17.55;;;9.70;;
37241;SDS011;23135;51.078;12.108;2024-03-22T13:25:07;18.10;;;8.90;;
37241;SDS011;23135;51.078;12.108;2024-03-22T13:27:35;17.30;;;8.07;;
37241;SDS011;23135;51.078;12.108;2024-03-22T13:30:01;14.38;;;8.20;;
37241;SDS011;23135;51.078;12.108;2024-03-22T13:32:27;14.25;;;8.02;;
37241;SDS011;23135;51.078;12.108;2024-03-22T13:34:53;17.90;;;8.48;;
37241;SDS011;23135;51.078;12.108;2024-03-22T13:37:18;15.18;;;9.35;;
37241;SDS011;23135;51.078;12.108;2024-03-22T13:39:47;15.25;;;8.57;;
37241;SDS011;23135;51.078;12.108;2024-03-22T13:42:14;14.68;;;8.38;;
37241;SDS011;23135;51.078;12.108;2024-03-22T13:44:40;14.93;;;8.65;;
37241;SDS011;23135;51.078;12.108;2024-03-22T13:47:06;13.80;;;8.20;;
37241;SDS011;23135;51.078;12.108;2024-03-22T13:49:32;18.95;;;9.52;;
37241;SDS011;23135;51.078;12.108;2024-03-22T13:51:58;15.95;;;9.05;;
37241;SDS011;23135;51.078;12.108;2024-03-22T13:54:24;19.25;;;9.70;;
37241;SDS011;23135;51.078;12.108;2024-03-22T13:56:50;17.30;;;9.20;;
37241;SDS011;23135;51.078;12.108;2024-03-22T13:59:16;21.30;;;9.27;;
37241;SDS011;23135;51.078;12.108;2024-03-22T14:01:41;16.88;;;6.95;;
37241;SDS011;23135;51.078;12.108;2024-03-22T14:04:10;14.07;;;8.75;;
37241;SDS011;23135;51.078;12.108;2024-03-22T14:06:36;14.77;;;7.75;;
37241;SDS011;23135;51.078;12.108;2024-03-22T14:09:03;15.68;;;8.88;;
37241;SDS011;23135;51.078;12.108;2024-03-22T14:11:30;14.45;;;7.53;;
37241;SDS011;23135;51.078;12.108;2024-03-22T14:13:59;16.17;;;8.32;;
37241;SDS011;23135;51.078;12.108;2024-03-22T14:16:24;12.23;;;7.45;;